createdAt,value
2017-12-31T00:00:22.739Z,0
2017-12-31T00:01:34.879Z,0
2017-12-31T00:02:46.225Z,0
2017-12-31T00:03:56.705Z,0
2017-12-31T00:05:08.122Z,0
2017-12-31T00:06:19.241Z,0
2017-12-31T00:07:50.251Z,0
2017-12-31T00:10:20.328Z,0
2017-12-31T00:13:10.948Z,0
2017-12-31T00:14:37.855Z,0
2017-12-31T00:16:35.886Z,0
2017-12-31T00:18:42.991Z,0
2017-12-31T00:21:52.874Z,0
2017-12-31T00:23:03.030Z,0
2017-12-31T00:24:13.210Z,0
2017-12-31T00:25:23.343Z,0
2017-12-31T00:26:34.336Z,0
2017-12-31T00:27:45.679Z,0
2017-12-31T00:28:56.392Z,0
2017-12-31T00:30:08.816Z,0
2017-12-31T00:31:18.611Z,0
2017-12-31T00:32:28.717Z,0
2017-12-31T00:33:38.881Z,0
2017-12-31T00:34:49.020Z,0
2017-12-31T00:36:00.180Z,0
2017-12-31T00:37:10.409Z,0
2017-12-31T00:38:20.657Z,0
2017-12-31T00:39:30.316Z,0
2017-12-31T00:40:40.458Z,0
2017-12-31T00:41:50.576Z,0
2017-12-31T00:43:00.728Z,0
2017-12-31T00:44:10.740Z,0
2017-12-31T00:45:21.034Z,0
2017-12-31T00:46:30.933Z,0
2017-12-31T00:47:40.947Z,0
2017-12-31T00:48:51.087Z,0
2017-12-31T00:50:01.217Z,0
2017-12-31T00:51:11.350Z,0
2017-12-31T00:52:21.472Z,0
2017-12-31T00:53:31.615Z,0
2017-12-31T00:54:41.733Z,0
2017-12-31T00:55:51.681Z,0
2017-12-31T00:57:01.812Z,0
2017-12-31T00:58:11.723Z,0
2017-12-31T00:59:21.577Z,0
2017-12-31T01:00:31.730Z,0
2017-12-31T01:01:41.850Z,0
2017-12-31T01:02:51.977Z,0
2017-12-31T01:04:02.083Z,0
2017-12-31T01:05:12.281Z,0
2017-12-31T01:06:22.045Z,0
2017-12-31T01:07:32.245Z,0
2017-12-31T01:08:43.638Z,0
2017-12-31T01:09:53.774Z,0
2017-12-31T01:11:03.895Z,0
2017-12-31T01:12:14.104Z,0
2017-12-31T01:13:24.351Z,0
2017-12-31T01:14:34.629Z,0
2017-12-31T01:15:44.794Z,0
2017-12-31T01:16:55.422Z,0
2017-12-31T01:18:05.682Z,0
2017-12-31T01:19:15.832Z,0
2017-12-31T01:20:25.940Z,0
2017-12-31T01:21:36.081Z,0
2017-12-31T01:22:46.219Z,0
2017-12-31T01:23:56.412Z,0
2017-12-31T01:25:06.625Z,0
2017-12-31T01:26:16.847Z,0
2017-12-31T01:27:27.021Z,0
2017-12-31T01:28:37.244Z,0
2017-12-31T01:29:47.487Z,0
2017-12-31T01:30:57.713Z,0
2017-12-31T01:32:07.895Z,0
2017-12-31T01:33:18.094Z,0
2017-12-31T01:34:28.066Z,0
2017-12-31T01:35:38.173Z,0
2017-12-31T01:36:48.348Z,0
2017-12-31T01:37:58.477Z,0
2017-12-31T01:39:07.985Z,0
2017-12-31T01:40:18.161Z,0
2017-12-31T01:41:28.433Z,0
2017-12-31T01:42:38.576Z,0
2017-12-31T01:43:48.730Z,0
2017-12-31T01:44:58.909Z,0
2017-12-31T01:46:09.159Z,0
2017-12-31T01:47:19.327Z,0
2017-12-31T01:48:29.543Z,0
2017-12-31T01:49:39.407Z,0
2017-12-31T01:50:49.320Z,0
2017-12-31T01:51:59.474Z,0
2017-12-31T01:53:09.579Z,0
2017-12-31T01:54:19.718Z,0
2017-12-31T01:55:29.935Z,0
2017-12-31T01:56:40.143Z,0
2017-12-31T01:57:50.064Z,0
2017-12-31T01:59:00.190Z,0
2017-12-31T02:00:10.358Z,0
2017-12-31T02:01:20.588Z,0
2017-12-31T02:02:30.799Z,0
2017-12-31T02:03:40.768Z,0
2017-12-31T02:04:50.902Z,0
2017-12-31T02:06:01.020Z,0
2017-12-31T02:07:11.188Z,0
2017-12-31T02:08:21.328Z,0
2017-12-31T02:09:31.309Z,0
2017-12-31T02:10:41.422Z,0
2017-12-31T02:11:51.612Z,0
2017-12-31T02:13:01.839Z,0
2017-12-31T02:14:12.015Z,0
2017-12-31T02:15:22.202Z,0
2017-12-31T02:16:32.346Z,0
2017-12-31T02:17:42.484Z,0
2017-12-31T02:18:52.614Z,0
2017-12-31T02:20:02.752Z,0
2017-12-31T02:21:12.852Z,0
2017-12-31T02:22:22.994Z,0
2017-12-31T02:23:33.107Z,0
2017-12-31T02:24:43.254Z,0
2017-12-31T02:25:53.438Z,0
2017-12-31T02:27:03.567Z,0
2017-12-31T02:28:13.714Z,0
2017-12-31T02:29:23.931Z,0
2017-12-31T02:30:34.059Z,0
2017-12-31T02:31:44.247Z,0
2017-12-31T02:32:54.110Z,0
2017-12-31T02:34:04.311Z,0
2017-12-31T02:35:14.436Z,0
2017-12-31T02:36:24.589Z,0
2017-12-31T02:37:34.745Z,0
2017-12-31T02:38:44.231Z,0
2017-12-31T02:39:54.390Z,0
2017-12-31T02:41:04.264Z,0
2017-12-31T02:42:14.418Z,0
2017-12-31T02:43:24.571Z,0
2017-12-31T02:44:34.736Z,0
2017-12-31T02:45:44.838Z,0
2017-12-31T02:46:54.691Z,0
2017-12-31T02:48:04.823Z,0
2017-12-31T02:49:14.428Z,0
2017-12-31T02:50:24.564Z,0
2017-12-31T02:51:34.701Z,0
2017-12-31T02:52:44.826Z,0
2017-12-31T02:53:54.921Z,0
2017-12-31T02:55:05.077Z,0
2017-12-31T02:56:15.206Z,0
2017-12-31T02:57:25.373Z,0
2017-12-31T02:58:35.530Z,0
2017-12-31T02:59:45.416Z,0
2017-12-31T03:00:55.566Z,0
2017-12-31T03:02:05.748Z,0
2017-12-31T03:03:15.969Z,0
2017-12-31T03:04:26.149Z,0
2017-12-31T03:05:36.269Z,0
2017-12-31T03:06:46.413Z,0
2017-12-31T03:07:56.516Z,0
2017-12-31T03:09:06.294Z,0
2017-12-31T03:10:16.421Z,0
2017-12-31T03:11:26.529Z,0
2017-12-31T03:12:36.666Z,0
2017-12-31T03:13:46.602Z,0
2017-12-31T03:14:56.721Z,0
2017-12-31T03:16:07.919Z,0
2017-12-31T03:17:18.368Z,0
2017-12-31T03:18:28.530Z,0
2017-12-31T03:19:38.632Z,0
2017-12-31T03:20:48.742Z,0
2017-12-31T03:21:59.003Z,0
2017-12-31T03:23:09.253Z,0
2017-12-31T03:24:19.454Z,0
2017-12-31T03:25:29.721Z,0
2017-12-31T03:26:39.858Z,0
2017-12-31T03:27:50.107Z,0
2017-12-31T03:28:59.973Z,0
2017-12-31T03:30:10.108Z,0
2017-12-31T03:31:20.279Z,0
2017-12-31T03:32:30.442Z,0
2017-12-31T03:33:40.547Z,0
2017-12-31T03:34:50.671Z,0
2017-12-31T03:36:00.788Z,0
2017-12-31T03:37:10.694Z,0
2017-12-31T03:38:21.801Z,0
2017-12-31T03:39:31.910Z,0
2017-12-31T03:40:42.041Z,0
2017-12-31T03:41:52.020Z,0
2017-12-31T03:43:02.155Z,0
2017-12-31T03:44:12.013Z,0
2017-12-31T03:45:22.123Z,0
2017-12-31T03:46:31.734Z,0
2017-12-31T03:47:41.853Z,0
2017-12-31T03:48:51.947Z,0
2017-12-31T03:50:02.053Z,0
2017-12-31T03:51:12.169Z,0
2017-12-31T03:52:22.418Z,0
2017-12-31T03:53:32.532Z,0
2017-12-31T03:54:42.785Z,0
2017-12-31T03:55:52.898Z,0
2017-12-31T03:57:03.049Z,0
2017-12-31T03:58:13.043Z,0
2017-12-31T03:59:23.321Z,0
2017-12-31T04:00:33.535Z,0
2017-12-31T04:01:43.701Z,0
2017-12-31T04:02:53.841Z,0
2017-12-31T04:04:04.008Z,0
2017-12-31T04:05:14.131Z,0
2017-12-31T04:06:24.037Z,0
2017-12-31T04:07:34.168Z,0
2017-12-31T04:08:44.294Z,0
2017-12-31T04:09:54.391Z,0
2017-12-31T04:11:04.498Z,0
2017-12-31T04:12:14.712Z,0
2017-12-31T04:13:24.929Z,0
2017-12-31T04:14:35.084Z,0
2017-12-31T04:15:45.291Z,0
2017-12-31T04:16:55.933Z,0
2017-12-31T04:18:06.059Z,0
2017-12-31T04:19:16.195Z,0
2017-12-31T04:20:26.351Z,0
2017-12-31T04:21:36.466Z,0
2017-12-31T04:22:46.679Z,0
2017-12-31T04:23:57.806Z,0
2017-12-31T04:25:07.970Z,0
2017-12-31T04:26:18.100Z,0
2017-12-31T04:27:27.997Z,0
2017-12-31T04:28:38.183Z,0
2017-12-31T04:29:48.099Z,0
2017-12-31T04:30:59.661Z,0
2017-12-31T04:32:10.237Z,0
2017-12-31T04:33:20.354Z,0
2017-12-31T04:34:30.215Z,0
2017-12-31T04:35:40.320Z,0
2017-12-31T04:36:49.675Z,0
2017-12-31T04:37:59.525Z,0
2017-12-31T04:39:09.130Z,0
2017-12-31T04:40:20.217Z,0
2017-12-31T04:41:31.335Z,0
2017-12-31T04:42:41.187Z,0
2017-12-31T04:43:50.785Z,0
2017-12-31T04:45:01.428Z,0
2017-12-31T04:46:12.615Z,0
2017-12-31T04:47:22.259Z,0
2017-12-31T04:48:33.104Z,0
2017-12-31T04:49:43.699Z,0
2017-12-31T04:50:54.529Z,0
2017-12-31T04:52:04.046Z,0
2017-12-31T04:53:14.875Z,0
2017-12-31T04:54:25.463Z,0
2017-12-31T04:55:35.050Z,0
2017-12-31T04:56:44.481Z,0
2017-12-31T04:57:53.731Z,0
2017-12-31T04:59:02.983Z,0
2017-12-31T05:00:13.037Z,0
2017-12-31T05:01:22.129Z,0
2017-12-31T05:02:31.108Z,0
2017-12-31T05:03:41.683Z,0
2017-12-31T05:04:52.057Z,0
2017-12-31T05:06:02.382Z,0
2017-12-31T05:07:11.673Z,0
2017-12-31T05:08:22.196Z,0
2017-12-31T05:09:31.164Z,0
2017-12-31T05:10:41.501Z,0
2017-12-31T05:11:51.130Z,0
2017-12-31T05:13:00.580Z,0
2017-12-31T05:14:11.175Z,0
2017-12-31T05:15:22.507Z,0
2017-12-31T05:16:32.422Z,0
2017-12-31T05:17:41.782Z,0
2017-12-31T05:18:51.026Z,0
2017-12-31T05:20:00.227Z,0
2017-12-31T05:21:10.289Z,0
2017-12-31T05:22:19.812Z,0
2017-12-31T05:23:30.204Z,0
2017-12-31T05:24:40.792Z,0
2017-12-31T05:25:51.636Z,0
2017-12-31T05:27:00.977Z,0
2017-12-31T05:28:10.231Z,0
2017-12-31T05:29:21.061Z,0
2017-12-31T05:30:31.323Z,0
2017-12-31T05:31:40.465Z,0
2017-12-31T05:32:50.518Z,0
2017-12-31T05:34:00.846Z,0
2017-12-31T05:35:11.171Z,0
2017-12-31T05:36:21.261Z,0
2017-12-31T05:37:32.825Z,0
2017-12-31T05:38:43.139Z,0
2017-12-31T05:39:53.722Z,0
2017-12-31T05:41:04.038Z,0
2017-12-31T05:42:14.230Z,0
2017-12-31T05:43:24.250Z,0
2017-12-31T05:44:34.578Z,0
2017-12-31T05:45:44.632Z,0
2017-12-31T05:46:56.428Z,0
2017-12-31T05:48:05.540Z,0
2017-12-31T05:49:16.124Z,0
2017-12-31T05:50:27.416Z,0
2017-12-31T05:51:37.727Z,0
2017-12-31T05:52:46.706Z,0
2017-12-31T05:53:56.757Z,0
2017-12-31T05:55:07.084Z,0
2017-12-31T05:56:17.653Z,0
2017-12-31T05:57:28.040Z,0
2017-12-31T05:58:38.613Z,0
2017-12-31T05:59:48.948Z,0
2017-12-31T06:00:59.023Z,0
2017-12-31T06:02:08.762Z,0
2017-12-31T06:03:20.133Z,0
2017-12-31T06:04:31.420Z,0
2017-12-31T06:05:40.281Z,0
2017-12-31T06:06:50.862Z,0
2017-12-31T06:08:02.938Z,0
2017-12-31T06:09:14.756Z,0
2017-12-31T06:10:26.033Z,0
2017-12-31T06:11:36.351Z,0
2017-12-31T06:12:45.458Z,0
2017-12-31T06:13:54.210Z,0
2017-12-31T06:15:05.054Z,0
2017-12-31T06:16:15.389Z,0
2017-12-31T06:17:25.709Z,0
2017-12-31T06:18:34.428Z,0
2017-12-31T06:19:44.488Z,0
2017-12-31T06:20:54.817Z,0
2017-12-31T06:22:04.868Z,0
2017-12-31T06:23:14.930Z,0
2017-12-31T06:24:25.906Z,0
2017-12-31T06:25:36.542Z,0
2017-12-31T06:26:46.849Z,0
2017-12-31T06:27:58.130Z,0
2017-12-31T06:29:08.231Z,0
2017-12-31T06:30:18.560Z,0
2017-12-31T06:31:28.872Z,0
2017-12-31T06:32:37.849Z,0
2017-12-31T06:33:47.923Z,0
2017-12-31T06:34:57.255Z,0
2017-12-31T06:36:07.671Z,0
2017-12-31T06:37:16.945Z,0
2017-12-31T06:38:27.266Z,0
2017-12-31T06:39:37.654Z,0
2017-12-31T06:40:47.716Z,0
2017-12-31T06:41:58.037Z,0
2017-12-31T06:43:07.144Z,0
2017-12-31T06:44:17.745Z,0
2017-12-31T06:45:28.122Z,4
2017-12-31T06:46:38.706Z,4
2017-12-31T06:47:48.763Z,0
2017-12-31T06:48:58.822Z,0
2017-12-31T06:50:09.160Z,4
2017-12-31T06:51:20.725Z,4
2017-12-31T06:52:31.313Z,4
2017-12-31T06:53:41.671Z,4
2017-12-31T06:54:51.734Z,8
2017-12-31T06:56:02.380Z,8
2017-12-31T06:57:12.431Z,8
2017-12-31T06:58:22.492Z,8
2017-12-31T06:59:32.454Z,12
2017-12-31T07:00:42.787Z,12
2017-12-31T07:01:51.968Z,16
2017-12-31T07:03:02.127Z,16
2017-12-31T07:04:11.125Z,24
2017-12-31T07:05:21.424Z,24
2017-12-31T07:06:30.565Z,24
2017-12-31T07:07:40.627Z,28
2017-12-31T07:08:50.950Z,28
2017-12-31T07:10:02.591Z,32
2017-12-31T07:11:12.987Z,36
2017-12-31T07:12:24.520Z,36
2017-12-31T07:13:34.568Z,36
2017-12-31T07:14:44.888Z,40
2017-12-31T07:15:54.944Z,48
2017-12-31T07:17:06.497Z,52
2017-12-31T07:18:16.814Z,60
2017-12-31T07:19:27.135Z,60
2017-12-31T07:20:35.883Z,64
2017-12-31T07:21:47.191Z,76
2017-12-31T07:22:57.777Z,84
2017-12-31T07:24:07.029Z,92
2017-12-31T07:25:17.338Z,88
2017-12-31T07:26:27.682Z,92
2017-12-31T07:27:37.613Z,88
2017-12-31T07:28:47.739Z,92
2017-12-31T07:29:57.179Z,96
2017-12-31T07:31:06.782Z,96
2017-12-31T07:32:15.880Z,108
2017-12-31T07:33:25.840Z,128
2017-12-31T07:34:34.815Z,120
2017-12-31T07:35:43.785Z,108
2017-12-31T07:36:53.849Z,108
2017-12-31T07:38:03.205Z,128
2017-12-31T07:39:13.513Z,152
2017-12-31T07:40:23.280Z,156
2017-12-31T07:41:35.103Z,148
2017-12-31T07:42:46.693Z,160
2017-12-31T07:43:56.754Z,204
2017-12-31T07:45:06.799Z,212
2017-12-31T07:46:17.148Z,232
2017-12-31T07:47:28.710Z,236
2017-12-31T07:48:39.313Z,292
2017-12-31T07:49:48.674Z,324
2017-12-31T07:50:58.131Z,324
2017-12-31T07:52:08.278Z,344
2017-12-31T07:53:18.598Z,348
2017-12-31T07:54:28.058Z,344
2017-12-31T07:55:39.590Z,364
2017-12-31T07:56:48.808Z,384
2017-12-31T07:57:59.128Z,384
2017-12-31T07:59:08.229Z,356
2017-12-31T08:00:19.060Z,356
2017-12-31T08:01:29.649Z,360
2017-12-31T08:02:40.035Z,372
2017-12-31T08:03:50.650Z,424
2017-12-31T08:05:00.977Z,448
2017-12-31T08:06:11.032Z,496
2017-12-31T08:07:21.115Z,528
2017-12-31T08:08:31.707Z,548
2017-12-31T08:09:40.957Z,584
2017-12-31T08:10:51.014Z,644
2017-12-31T08:12:00.243Z,712
2017-12-31T08:13:09.334Z,740
2017-12-31T08:14:19.497Z,756
2017-12-31T08:15:29.643Z,784
2017-12-31T08:16:40.023Z,820
2017-12-31T08:17:50.566Z,872
2017-12-31T08:19:01.466Z,912
2017-12-31T08:20:12.367Z,884
2017-12-31T08:21:22.971Z,812
2017-12-31T08:22:33.033Z,884
2017-12-31T08:23:44.402Z,872
2017-12-31T08:24:54.871Z,880
2017-12-31T08:26:04.963Z,896
2017-12-31T08:27:15.883Z,892
2017-12-31T08:28:25.977Z,952
2017-12-31T08:29:34.974Z,880
2017-12-31T08:30:44.340Z,920
2017-12-31T08:31:53.913Z,900
2017-12-31T08:33:04.271Z,812
2017-12-31T08:34:13.901Z,808
2017-12-31T08:35:25.495Z,832
2017-12-31T08:36:36.371Z,828
2017-12-31T08:37:46.971Z,924
2017-12-31T08:38:58.704Z,956
2017-12-31T08:40:09.322Z,996
2017-12-31T08:41:19.721Z,1076
2017-12-31T08:42:28.825Z,1140
2017-12-31T08:43:39.421Z,1068
2017-12-31T08:44:49.379Z,1032
2017-12-31T08:45:58.438Z,1000
2017-12-31T08:47:08.758Z,928
2017-12-31T08:48:19.092Z,916
2017-12-31T08:49:29.425Z,844
2017-12-31T08:50:40.009Z,796
2017-12-31T08:51:52.806Z,756
2017-12-31T08:53:03.391Z,740
2017-12-31T08:54:12.761Z,784
2017-12-31T08:55:22.285Z,864
2017-12-31T08:56:32.894Z,932
2017-12-31T08:57:42.955Z,1032
2017-12-31T08:58:53.018Z,1168
2017-12-31T09:00:03.326Z,1364
2017-12-31T09:01:13.673Z,1500
2017-12-31T09:02:24.284Z,1528
2017-12-31T09:03:35.925Z,1396
2017-12-31T09:04:46.272Z,1228
2017-12-31T09:05:56.852Z,1212
2017-12-31T09:07:07.179Z,1312
2017-12-31T09:08:17.274Z,1432
2017-12-31T09:09:27.343Z,1568
2017-12-31T09:10:38.640Z,1660
2017-12-31T09:11:48.705Z,1636
2017-12-31T09:12:59.332Z,1540
2017-12-31T09:14:09.918Z,1620
2017-12-31T09:15:20.251Z,1616
2017-12-31T09:16:30.843Z,1612
2017-12-31T09:17:41.153Z,1660
2017-12-31T09:18:52.457Z,1596
2017-12-31T09:20:03.763Z,1512
2017-12-31T09:21:13.441Z,1460
2017-12-31T09:22:22.876Z,1496
2017-12-31T09:23:33.101Z,1708
2017-12-31T09:24:43.708Z,2076
2017-12-31T09:26:26.214Z,2212
2017-12-31T09:27:38.070Z,2176
2017-12-31T09:28:49.974Z,1700
2017-12-31T09:29:59.443Z,1648
2017-12-31T09:31:08.220Z,1732
2017-12-31T09:32:18.358Z,1684
2017-12-31T09:33:28.708Z,1564
2017-12-31T09:34:39.296Z,1560
2017-12-31T09:35:48.981Z,1524
2017-12-31T09:36:59.320Z,1536
2017-12-31T09:38:09.390Z,1544
2017-12-31T09:39:18.655Z,1552
2017-12-31T09:40:29.008Z,1592
2017-12-31T09:41:39.107Z,1668
2017-12-31T09:42:50.414Z,1600
2017-12-31T09:44:00.754Z,1544
2017-12-31T09:45:09.491Z,1496
2017-12-31T09:46:22.304Z,1484
2017-12-31T09:47:33.196Z,1680
2017-12-31T09:48:43.261Z,1904
2017-12-31T09:49:52.676Z,1936
2017-12-31T09:51:02.760Z,2016
2017-12-31T09:52:13.080Z,2072
2017-12-31T09:53:23.670Z,2092
2017-12-31T09:54:35.508Z,2040
2017-12-31T09:55:45.583Z,2000
2017-12-31T09:56:55.678Z,1932
2017-12-31T09:58:06.057Z,1900
2017-12-31T09:59:15.689Z,1964
2017-12-31T10:00:24.758Z,1952
2017-12-31T10:01:33.857Z,1996
2017-12-31T10:02:44.206Z,2084
2017-12-31T10:03:52.962Z,2116
2017-12-31T10:05:02.055Z,2332
2017-12-31T10:06:11.199Z,2488
2017-12-31T10:07:22.537Z,2972
2017-12-31T10:08:34.487Z,3212
2017-12-31T10:09:46.107Z,3184
2017-12-31T10:10:56.276Z,2980
2017-12-31T10:12:08.537Z,2600
2017-12-31T10:13:19.131Z,2216
2017-12-31T10:14:29.481Z,2232
2017-12-31T10:15:38.917Z,2540
2017-12-31T10:16:49.792Z,2852
2017-12-31T10:18:02.588Z,3408
2017-12-31T10:19:11.977Z,4336
2017-12-31T10:20:22.669Z,5448
2017-12-31T10:21:33.298Z,6028
2017-12-31T10:22:43.914Z,5684
2017-12-31T10:23:53.535Z,5096
2017-12-31T10:25:02.574Z,4616
2017-12-31T10:26:13.174Z,4452
2017-12-31T10:27:23.517Z,4140
2017-12-31T10:28:33.892Z,3676
2017-12-31T10:29:45.746Z,3368
2017-12-31T10:30:56.287Z,3300
2017-12-31T10:32:06.863Z,3284
2017-12-31T10:33:16.940Z,3244
2017-12-31T10:34:29.496Z,3544
2017-12-31T10:35:38.725Z,4620
2017-12-31T10:36:50.658Z,4312
2017-12-31T10:38:01.282Z,3296
2017-12-31T10:39:11.371Z,3164
2017-12-31T10:40:21.980Z,3044
2017-12-31T10:41:32.299Z,2568
2017-12-31T10:42:43.967Z,2632
2017-12-31T10:43:55.531Z,3060
2017-12-31T10:45:05.606Z,2904
2017-12-31T10:46:14.875Z,3272
2017-12-31T10:47:23.994Z,3696
2017-12-31T10:48:34.421Z,3468
2017-12-31T10:49:43.447Z,2868
2017-12-31T10:50:53.796Z,2588
2017-12-31T10:52:05.366Z,2384
2017-12-31T10:53:16.004Z,2828
2017-12-31T10:54:26.711Z,3524
2017-12-31T10:55:39.597Z,3860
2017-12-31T10:56:50.916Z,3924
2017-12-31T10:58:01.757Z,4952
2017-12-31T10:59:10.861Z,5824
2017-12-31T11:00:20.512Z,6112
2017-12-31T11:01:30.874Z,5524
2017-12-31T11:02:41.326Z,5000
2017-12-31T11:03:50.708Z,5004
2017-12-31T11:05:03.680Z,4448
2017-12-31T11:06:14.447Z,3304
2017-12-31T11:07:26.273Z,2600
2017-12-31T11:08:36.946Z,2212
2017-12-31T11:09:48.584Z,1992
2017-12-31T11:10:57.631Z,1996
2017-12-31T11:12:07.696Z,2160
2017-12-31T11:13:18.042Z,2884
2017-12-31T11:14:27.066Z,2800
2017-12-31T11:15:37.436Z,2596
2017-12-31T11:16:50.008Z,2908
2017-12-31T11:18:00.515Z,3192
2017-12-31T11:19:11.830Z,3440
2017-12-31T11:20:22.185Z,3524
2017-12-31T11:21:30.937Z,4148
2017-12-31T11:22:41.282Z,4244
2017-12-31T11:23:51.358Z,4104
2017-12-31T11:25:01.764Z,4288
2017-12-31T11:26:12.395Z,4480
2017-12-31T11:27:23.009Z,4596
2017-12-31T11:28:33.063Z,4660
2017-12-31T11:29:44.660Z,4744
2017-12-31T11:30:56.488Z,5136
2017-12-31T11:32:08.366Z,5452
2017-12-31T11:33:18.978Z,5048
2017-12-31T11:34:29.573Z,4620
2017-12-31T11:35:39.832Z,4188
2017-12-31T11:36:51.659Z,3588
2017-12-31T11:38:02.051Z,3240
2017-12-31T11:39:12.028Z,3252
2017-12-31T11:40:21.428Z,3100
2017-12-31T11:41:31.760Z,2724
2017-12-31T11:42:43.104Z,2144
2017-12-31T11:43:55.010Z,1856
2017-12-31T11:45:05.402Z,2232
2017-12-31T11:46:15.757Z,2584
2017-12-31T11:47:26.101Z,2888
2017-12-31T11:48:36.367Z,3440
2017-12-31T11:49:45.764Z,3572
2017-12-31T11:50:55.841Z,2940
2017-12-31T11:52:06.216Z,2728
2017-12-31T11:53:16.568Z,2200
2017-12-31T11:54:26.521Z,2072
2017-12-31T11:55:36.965Z,2300
2017-12-31T11:56:48.274Z,2828
2017-12-31T11:57:57.668Z,2488
2017-12-31T11:59:06.604Z,2232
2017-12-31T12:00:17.538Z,2220
2017-12-31T12:01:28.136Z,2760
2017-12-31T12:02:38.909Z,3260
2017-12-31T12:03:49.527Z,4320
2017-12-31T12:05:00.823Z,5176
2017-12-31T12:06:10.280Z,5172
2017-12-31T12:07:20.921Z,4820
2017-12-31T12:08:30.041Z,4944
2017-12-31T12:09:40.099Z,4576
2017-12-31T12:10:49.458Z,5012
2017-12-31T12:11:59.072Z,4972
2017-12-31T12:13:07.825Z,4188
2017-12-31T12:14:17.909Z,3908
2017-12-31T12:15:30.800Z,4192
2017-12-31T12:16:40.640Z,4592
2017-12-31T12:17:50.269Z,4696
2017-12-31T12:19:00.782Z,4788
2017-12-31T12:20:09.808Z,4680
2017-12-31T12:21:20.462Z,4512
2017-12-31T12:22:31.103Z,4936
2017-12-31T12:23:41.432Z,5544
2017-12-31T12:24:50.844Z,5344
2017-12-31T12:26:01.699Z,5632
2017-12-31T12:27:11.080Z,4920
2017-12-31T12:28:21.684Z,4448
2017-12-31T12:29:34.244Z,3872
2017-12-31T12:30:43.620Z,3476
2017-12-31T12:31:53.715Z,3756
2017-12-31T12:33:05.300Z,3504
2017-12-31T12:34:17.573Z,3276
2017-12-31T12:35:28.172Z,3448
2017-12-31T12:36:39.504Z,2568
2017-12-31T12:37:49.838Z,2320
2017-12-31T12:38:59.900Z,2484
2017-12-31T12:40:08.667Z,2272
2017-12-31T12:41:19.290Z,2016
2017-12-31T12:42:29.273Z,1852
2017-12-31T12:43:39.898Z,2160
2017-12-31T12:44:50.277Z,2588
2017-12-31T12:46:01.605Z,2672
2017-12-31T12:47:11.964Z,2568
2017-12-31T12:48:21.340Z,2348
2017-12-31T12:49:30.481Z,2132
2017-12-31T12:50:42.308Z,2592
2017-12-31T12:51:53.469Z,3444
2017-12-31T12:53:03.712Z,4144
2017-12-31T12:54:13.093Z,4172
2017-12-31T12:55:23.726Z,3656
2017-12-31T12:56:35.563Z,3760
2017-12-31T12:57:44.352Z,3720
2017-12-31T12:58:54.730Z,3268
2017-12-31T13:00:03.827Z,2764
2017-12-31T13:01:14.190Z,2992
2017-12-31T13:02:26.054Z,2784
2017-12-31T13:03:35.069Z,2272
2017-12-31T13:04:44.162Z,2008
2017-12-31T13:05:55.515Z,1920
2017-12-31T13:07:06.848Z,1932
2017-12-31T13:08:16.985Z,2068
2017-12-31T13:09:27.335Z,1908
2017-12-31T13:10:36.970Z,1768
2017-12-31T13:11:47.314Z,1720
2017-12-31T13:13:01.088Z,1616
2017-12-31T13:14:10.459Z,1464
2017-12-31T13:15:21.773Z,1548
2017-12-31T13:16:31.843Z,1460
2017-12-31T13:18:14.337Z,1460
2017-12-31T13:19:25.644Z,1552
2017-12-31T13:20:36.023Z,1608
2017-12-31T13:21:47.337Z,1512
2017-12-31T13:22:59.210Z,1808
2017-12-31T13:24:09.883Z,2652
2017-12-31T13:25:19.898Z,3984
2017-12-31T13:26:29.783Z,4216
2017-12-31T13:27:38.822Z,4332
2017-12-31T13:28:49.224Z,3728
2017-12-31T13:29:58.653Z,2676
2017-12-31T13:31:09.989Z,2312
2017-12-31T13:32:20.633Z,2288
2017-12-31T13:33:32.241Z,1932
2017-12-31T13:34:43.827Z,1412
2017-12-31T13:35:55.693Z,1300
2017-12-31T13:37:07.133Z,1752
2017-12-31T13:38:17.491Z,1832
2017-12-31T13:39:29.092Z,1880
2017-12-31T13:40:41.681Z,2140
2017-12-31T13:41:53.261Z,2108
2017-12-31T13:43:04.137Z,1920
2017-12-31T13:44:15.441Z,1680
2017-12-31T13:45:27.039Z,1496
2017-12-31T13:46:37.405Z,1452
2017-12-31T13:47:47.762Z,1252
2017-12-31T13:48:59.350Z,1220
2017-12-31T13:50:09.979Z,1200
2017-12-31T13:51:21.579Z,1052
2017-12-31T13:52:32.927Z,972
2017-12-31T13:53:43.418Z,920
2017-12-31T13:54:53.788Z,1200
2017-12-31T13:56:02.931Z,1380
2017-12-31T13:57:13.029Z,1448
2017-12-31T13:58:23.678Z,1248
2017-12-31T13:59:33.778Z,1184
2017-12-31T14:00:42.906Z,1244
2017-12-31T14:01:51.936Z,1280
2017-12-31T14:03:03.264Z,1848
2017-12-31T14:04:13.496Z,2184
2017-12-31T14:05:23.227Z,2552
2017-12-31T14:06:33.479Z,2624
2017-12-31T14:07:43.858Z,2612
2017-12-31T14:08:55.739Z,2800
2017-12-31T14:10:04.896Z,3032
2017-12-31T14:11:16.235Z,2852
2017-12-31T14:12:26.959Z,2804
2017-12-31T14:13:38.265Z,2520
2017-12-31T14:14:49.610Z,2192
2017-12-31T14:16:00.064Z,2064
2017-12-31T14:17:09.542Z,2668
2017-12-31T14:18:19.632Z,2448
2017-12-31T14:19:29.019Z,2104
2017-12-31T14:20:40.903Z,2000
2017-12-31T14:21:52.497Z,2404
2017-12-31T14:23:03.802Z,2572
2017-12-31T14:24:13.895Z,2500
2017-12-31T14:25:25.834Z,2228
2017-12-31T14:26:38.370Z,1864
2017-12-31T14:27:48.695Z,1612
2017-12-31T14:28:59.337Z,1600
2017-12-31T14:30:08.329Z,1480
2017-12-31T14:31:17.962Z,1372
2017-12-31T14:32:28.043Z,1124
2017-12-31T14:33:38.954Z,940
2017-12-31T14:34:48.331Z,932
2017-12-31T14:35:58.800Z,964
2017-12-31T14:37:09.409Z,1020
2017-12-31T14:38:18.528Z,972
2017-12-31T14:39:27.952Z,864
2017-12-31T14:40:39.261Z,844
2017-12-31T14:41:48.626Z,820
2017-12-31T14:42:59.049Z,772
2017-12-31T14:44:09.439Z,720
2017-12-31T14:45:19.080Z,632
2017-12-31T14:46:29.743Z,552
2017-12-31T14:47:40.090Z,460
2017-12-31T14:48:50.706Z,384
2017-12-31T14:50:01.376Z,340
2017-12-31T14:51:11.458Z,288
2017-12-31T14:52:22.772Z,256
2017-12-31T14:53:32.023Z,244
2017-12-31T14:54:42.365Z,232
2017-12-31T14:55:52.496Z,208
2017-12-31T14:57:34.027Z,196
2017-12-31T14:58:45.624Z,200
2017-12-31T14:59:56.316Z,184
2017-12-31T15:01:07.916Z,152
2017-12-31T15:02:18.017Z,136
2017-12-31T15:03:28.679Z,116
2017-12-31T15:04:39.363Z,108
2017-12-31T15:05:50.935Z,96
2017-12-31T15:07:00.573Z,100
2017-12-31T15:08:09.966Z,96
2017-12-31T15:09:18.715Z,80
2017-12-31T15:10:29.294Z,76
2017-12-31T15:11:39.919Z,84
2017-12-31T15:12:51.507Z,116
2017-12-31T15:14:02.152Z,148
2017-12-31T15:15:13.721Z,140
2017-12-31T15:16:24.069Z,124
2017-12-31T15:17:34.468Z,112
2017-12-31T15:18:46.059Z,108
2017-12-31T15:19:57.879Z,96
2017-12-31T15:21:06.913Z,88
2017-12-31T15:22:16.287Z,84
2017-12-31T15:23:26.632Z,80
2017-12-31T15:24:38.207Z,72
2017-12-31T15:25:46.978Z,64
2017-12-31T15:26:57.608Z,52
2017-12-31T15:28:07.299Z,40
2017-12-31T15:29:17.667Z,32
2017-12-31T15:30:27.659Z,28
2017-12-31T15:31:38.008Z,28
2017-12-31T15:32:49.891Z,24
2017-12-31T15:34:00.500Z,20
2017-12-31T15:35:11.349Z,20
2017-12-31T15:36:20.116Z,16
2017-12-31T15:37:30.450Z,16
2017-12-31T15:38:40.822Z,12
2017-12-31T15:39:53.624Z,8
2017-12-31T15:41:05.247Z,8
2017-12-31T15:42:16.632Z,8
2017-12-31T15:43:26.995Z,4
2017-12-31T15:44:37.638Z,8
2017-12-31T15:45:47.136Z,4
2017-12-31T15:46:59.009Z,4
2017-12-31T15:48:09.930Z,4
2017-12-31T15:49:22.736Z,4
2017-12-31T15:50:32.812Z,4
2017-12-31T15:51:45.382Z,0
2017-12-31T15:52:59.200Z,0
2017-12-31T15:54:11.996Z,0
2017-12-31T15:55:22.073Z,0
2017-12-31T15:56:32.953Z,0
2017-12-31T15:57:43.194Z,0
2017-12-31T15:58:52.580Z,0
2017-12-31T16:00:03.900Z,0
2017-12-31T16:01:15.810Z,0
2017-12-31T16:02:26.725Z,0
2017-12-31T16:03:38.051Z,0
2017-12-31T16:04:49.713Z,0
2017-12-31T16:06:00.327Z,0
2017-12-31T16:07:11.907Z,0
2017-12-31T16:08:22.008Z,0
2017-12-31T16:09:31.384Z,0
2017-12-31T16:10:41.714Z,0
2017-12-31T16:11:52.055Z,0
2017-12-31T16:13:03.693Z,0
2017-12-31T16:14:13.070Z,0
2017-12-31T16:15:23.020Z,0
2017-12-31T16:16:32.657Z,0
2017-12-31T16:17:45.601Z,0
2017-12-31T16:18:56.321Z,0
2017-12-31T16:20:05.703Z,0
2017-12-31T16:21:15.386Z,0
2017-12-31T16:22:26.532Z,0
2017-12-31T16:23:36.620Z,0
2017-12-31T16:24:47.956Z,0
2017-12-31T16:25:59.612Z,0
2017-12-31T16:27:09.244Z,0
2017-12-31T16:28:21.249Z,0
2017-12-31T16:29:31.506Z,0
2017-12-31T16:30:43.361Z,0
2017-12-31T16:31:53.977Z,0
2017-12-31T16:33:04.058Z,0
2017-12-31T16:34:14.124Z,0
2017-12-31T16:35:25.709Z,0
2017-12-31T16:36:35.089Z,0
2017-12-31T16:37:45.194Z,0
2017-12-31T16:38:55.835Z,0
2017-12-31T16:40:04.945Z,0